Owo View — VRBZ8 — position and weather

sailwx.info

Track history (hours):
 
Tides and Currents Weather Stations Pressure Air Temp Water Temp Dewpoint Dewpoint Depression Visibility Wind Speed Wind Dir Waves Ship Positions

Owo View

Last reported at 2017-Nov-17 20:58 UTC. Time now 2017-Nov-17 21:10 UTC.
Position N 31°38' E 121°14'.

Length 143 m; draft 8 m.

Type: Cargo ship. MMSI: 477364240.

Date/timePositionNaut miles runAvg speedWind from/ knotsBaromVisibWave heightAir tempDewpointWater temp
2017-Nov-17 20:58N 31°38' E 121°14'0 0.0
2017-Nov-17 20:31N 31°38' E 121°14'0 0.0
2017-Nov-17 19:58N 31°38' E 121°14'0 0.0
2017-Nov-17 19:28N 31°38' E 121°14'0 0.0
2017-Nov-17 18:55N 31°38' E 121°14'0 0.0
2017-Nov-17 18:28N 31°38' E 121°14'0 0.0
2017-Nov-17 18:00N 31°38' E 121°14'0 0.0
2017-Nov-17 17:28N 31°38' E 121°14'0 0.0
2017-Nov-17 17:01N 31°38' E 121°14'0 0.0
2017-Nov-17 16:31N 31°38' E 121°14'0 0.0
2017-Nov-17 15:58N 31°38' E 121°14'0 0.0
2017-Nov-17 15:31N 31°38' E 121°14'0 0.0
2017-Nov-17 14:58N 31°38' E 121°14'0 0.0
2017-Nov-17 14:28N 31°38' E 121°14'0 0.0
2017-Nov-17 14:01N 31°38' E 121°14'0 0.0
2017-Nov-17 13:31N 31°38' E 121°14'0 0.0
2017-Nov-17 12:58N 31°38' E 121°14'0 0.0
2017-Nov-17 12:28N 31°38' E 121°14'0 0.0
2017-Nov-17 11:52N 31°38' E 121°14'0 0.0
2017-Nov-17 11:31N 31°38' E 121°14'0 0.0
2017-Nov-17 11:01N 31°38' E 121°14'0 0.0
2017-Nov-17 10:31N 31°38' E 121°14'0 0.0
2017-Nov-17 10:00N 31°38' E 121°14'2 3.9
2017-Nov-17 09:30N 31°37' E 121°16'510.8
2017-Nov-17 09:00N 31°33' E 121°20'510.9
2017-Nov-17 08:30N 31°30' E 121°25'5 9.2
2017-Nov-17 08:00N 31°27' E 121°29'4 7.3
2017-Nov-17 07:30N 31°25' E 121°32'611.2
2017-Nov-17 07:00N 31°22' E 121°38'510.9
2017-Nov-17 06:30N 31°19' E 121°44'714.1
2017-Nov-17 06:01N 31°16' E 121°51'714.9
2017-Nov-17 05:31N 31°15' E 121°60'612.8
2017-Nov-17 05:00N 31°13' E 122°07'5 9.6
2017-Nov-17 04:28N 31°10' E 122°12'611.3
2017-Nov-17 03:56N 31°07' E 122°18'10 4.4
2017-Nov-17 01:44N 31°01' E 122°26'3 9.5
2017-Nov-17 01:26N 31°02' E 122°23'1 3.2
2017-Nov-17 01:00N 31°01' E 122°25'  
2017-Nov-12 22:14N 35°36' E 139°47'0 2.1
2017-Nov-12 22:00N 35°36' E 139°47'3 6.1
2017-Nov-12 21:31N 35°34' E 139°50'3 5.9
2017-Nov-12 21:01N 35°31' E 139°52'4 7.8
2017-Nov-12 20:31N 35°28' E 139°51'611.8
2017-Nov-12 20:01N 35°23' E 139°46'510.8
2017-Nov-12 19:31N 35°18' E 139°45'510.3
2017-Nov-12 19:01N 35°13' E 139°47'713.0
2017-Nov-12 18:30N 35°07' E 139°47'713.8
2017-Nov-12 18:00N 35°02' E 139°40'714.5
2017-Nov-12 17:30N 34°58' E 139°33'815.1
2017-Nov-12 17:00N 34°53' E 139°26'  
2017-Nov-09 21:21N 31°02' E 124°42'6516.4
2017-Nov-09 17:25N 31°05' E 123°27'615.3
2017-Nov-09 17:00N 31°05' E 123°19'815.1
2017-Nov-09 16:30N 31°05' E 123°10'814.9
2017-Nov-09 16:00N 31°05' E 123°02'815.3
2017-Nov-09 15:30N 31°05' E 122°53'1915.6
2017-Nov-09 14:16N 31°05' E 122°30'410.1
2017-Nov-09 13:52N 31°05' E 122°25'2 5.3
2017-Nov-09 13:25N 31°06' E 122°23'512.0
2017-Nov-09 12:59N 31°07' E 122°17'713.9
2017-Nov-09 12:30N 31°11' E 122°10'714.7
2017-Nov-09 12:00N 31°14' E 122°03'815.1
2017-Nov-09 11:30N 31°16' E 121°54'714.6
2017-Nov-09 11:00N 31°18' E 121°46'612.2
2017-Nov-09 10:30N 31°21' E 121°40'611.6
2017-Nov-09 10:00N 31°24' E 121°34'4 8.8
2017-Nov-09 09:30N 31°26' E 121°30'5 9.2
2017-Nov-09 09:00N 31°29' E 121°26'611.3
2017-Nov-09 08:30N 31°33' E 121°20'611.9
2017-Nov-09 08:00N 31°37' E 121°16'2 3.7
2017-Nov-09 07:25N 31°38' E 121°14'0 0.0
2017-Nov-09 06:55N 31°38' E 121°14'0 0.0
2017-Nov-09 06:25N 31°38' E 121°14'0 0.0
2017-Nov-09 05:58N 31°38' E 121°14'0 0.0
2017-Nov-09 05:28N 31°38' E 121°14'0 0.0
2017-Nov-09 04:58N 31°38' E 121°14'0 0.0
2017-Nov-09 04:28N 31°38' E 121°14'0 0.0
2017-Nov-09 03:58N 31°38' E 121°14'0 0.0
2017-Nov-09 03:28N 31°38' E 121°14'0 0.0
2017-Nov-09 02:58N 31°38' E 121°14'0 0.0
2017-Nov-09 02:28N 31°38' E 121°14'0 0.0
2017-Nov-09 01:58N 31°38' E 121°14'0 0.0
2017-Nov-09 01:25N 31°38' E 121°14'0 0.0
2017-Nov-09 00:58N 31°38' E 121°14'0 0.0
2017-Nov-09 00:28N 31°38' E 121°14'0 0.0
2017-Nov-08 23:55N 31°38' E 121°14'0 0.0
2017-Nov-08 23:28N 31°38' E 121°14'0 0.0
2017-Nov-08 22:58N 31°38' E 121°14'0 0.0
2017-Nov-08 22:28N 31°38' E 121°14'0 0.0
2017-Nov-08 21:55N 31°38' E 121°14'0 0.0
2017-Nov-08 21:28N 31°38' E 121°14'0 0.0
2017-Nov-08 20:58N 31°38' E 121°14'0 0.0
2017-Nov-08 20:28N 31°38' E 121°14'0 0.0
2017-Nov-08 19:58N 31°38' E 121°14'0 0.0
2017-Nov-08 19:25N 31°38' E 121°14'0 0.0
2017-Nov-08 18:55N 31°38' E 121°14'0 0.0
2017-Nov-08 18:28N 31°38' E 121°14'0 0.0
2017-Nov-08 17:58N 31°38' E 121°14'0 0.0
2017-Nov-08 17:28N 31°38' E 121°14'0 0.0
2017-Nov-08 16:55N 31°38' E 121°14'0 0.0
2017-Nov-08 16:28N 31°38' E 121°14'0 0.0
2017-Nov-08 15:58N 31°38' E 121°14'0 0.0
2017-Nov-08 15:28N 31°38' E 121°14'0 0.0
2017-Nov-08 14:55N 31°38' E 121°14'0 0.0
2017-Nov-08 14:28N 31°38' E 121°14'0 0.0
2017-Nov-08 13:58N 31°38' E 121°14'0 0.0
2017-Nov-08 13:28N 31°38' E 121°14'0 0.8
2017-Nov-08 13:00N 31°38' E 121°14'4 8.9
2017-Nov-08 12:30N 31°35' E 121°18'612.2
2017-Nov-08 12:00N 31°31' E 121°24'611.7
2017-Nov-08 11:30N 31°27' E 121°28'4 8.2
2017-Nov-08 11:00N 31°25' E 121°32'5 9.8
2017-Nov-08 10:30N 31°22' E 121°37'510.3
2017-Nov-08 10:00N 31°20' E 121°43'5 9.2
2017-Nov-08 09:30N 31°18' E 121°47'611.1
2017-Nov-08 09:00N 31°16' E 121°54'714.4
2017-Nov-08 08:30N 31°15' E 122°02'1010.1
2017-Nov-08 07:31N 31°10' E 122°12'113.9
2017-Nov-08 07:26N 31°09' E 122°13'5 9.7
2017-Nov-08 06:58N 31°07' E 122°18'5 9.7
2017-Nov-08 06:26N 31°06' E 122°24'4 7.8
2017-Nov-08 05:57N 31°07' E 122°28'4811.0
2017-Nov-08 01:34N 31°16' E 123°23'418.1
2017-Nov-08 01:22N 31°16' E 123°28'718.3
2017-Nov-08 01:00N 31°18' E 123°35'1618.5
2017-Nov-08 00:10N 31°26' E 123°51'  
Track history (hours):
 
Tides and Currents Weather Stations Pressure Air Temp Water Temp Dewpoint Dewpoint Depression Visibility Wind Speed Wind Dir Waves Ship Positions

Owo View

Last reported at 2017-Nov-17 20:58 UTC. Time now 2017-Nov-17 21:10 UTC.
Position N 31°38' E 121°14'.

Length 143 m; draft 8 m.

Type: Cargo ship. MMSI: 477364240.

Date/timePositionNaut miles runAvg speedWind from/ knotsBaromVisibWave heightAir tempDewpointWater temp
2017-Nov-17 20:58N 31°38' E 121°14'0 0.0
2017-Nov-17 20:31N 31°38' E 121°14'0 0.0
2017-Nov-17 19:58N 31°38' E 121°14'0 0.0
2017-Nov-17 19:28N 31°38' E 121°14'0 0.0
2017-Nov-17 18:55N 31°38' E 121°14'0 0.0
2017-Nov-17 18:28N 31°38' E 121°14'0 0.0
2017-Nov-17 18:00N 31°38' E 121°14'0 0.0
2017-Nov-17 17:28N 31°38' E 121°14'0 0.0
2017-Nov-17 17:01N 31°38' E 121°14'0 0.0
2017-Nov-17 16:31N 31°38' E 121°14'0 0.0
2017-Nov-17 15:58N 31°38' E 121°14'0 0.0
2017-Nov-17 15:31N 31°38' E 121°14'0 0.0
2017-Nov-17 14:58N 31°38' E 121°14'0 0.0
2017-Nov-17 14:28N 31°38' E 121°14'0 0.0
2017-Nov-17 14:01N 31°38' E 121°14'0 0.0
2017-Nov-17 13:31N 31°38' E 121°14'0 0.0
2017-Nov-17 12:58N 31°38' E 121°14'0 0.0
2017-Nov-17 12:28N 31°38' E 121°14'0 0.0
2017-Nov-17 11:52N 31°38' E 121°14'0 0.0
2017-Nov-17 11:31N 31°38' E 121°14'0 0.0
2017-Nov-17 11:01N 31°38' E 121°14'0 0.0
2017-Nov-17 10:31N 31°38' E 121°14'0 0.0
2017-Nov-17 10:00N 31°38' E 121°14'2 3.9
2017-Nov-17 09:30N 31°37' E 121°16'510.8
2017-Nov-17 09:00N 31°33' E 121°20'510.9
2017-Nov-17 08:30N 31°30' E 121°25'5 9.2
2017-Nov-17 08:00N 31°27' E 121°29'4 7.3
2017-Nov-17 07:30N 31°25' E 121°32'611.2
2017-Nov-17 07:00N 31°22' E 121°38'510.9
2017-Nov-17 06:30N 31°19' E 121°44'714.1
2017-Nov-17 06:01N 31°16' E 121°51'714.9
2017-Nov-17 05:31N 31°15' E 121°60'612.8
2017-Nov-17 05:00N 31°13' E 122°07'5 9.6
2017-Nov-17 04:28N 31°10' E 122°12'611.3
2017-Nov-17 03:56N 31°07' E 122°18'10 4.4
2017-Nov-17 01:44N 31°01' E 122°26'3 9.5
2017-Nov-17 01:26N 31°02' E 122°23'1 3.2
2017-Nov-17 01:00N 31°01' E 122°25'  
2017-Nov-12 22:14N 35°36' E 139°47'0 2.1
2017-Nov-12 22:00N 35°36' E 139°47'3 6.1
2017-Nov-12 21:31N 35°34' E 139°50'3 5.9
2017-Nov-12 21:01N 35°31' E 139°52'4 7.8
2017-Nov-12 20:31N 35°28' E 139°51'611.8
2017-Nov-12 20:01N 35°23' E 139°46'510.8
2017-Nov-12 19:31N 35°18' E 139°45'510.3
2017-Nov-12 19:01N 35°13' E 139°47'713.0
2017-Nov-12 18:30N 35°07' E 139°47'713.8
2017-Nov-12 18:00N 35°02' E 139°40'714.5
2017-Nov-12 17:30N 34°58' E 139°33'815.1
2017-Nov-12 17:00N 34°53' E 139°26'  
2017-Nov-09 21:21N 31°02' E 124°42'6516.4
2017-Nov-09 17:25N 31°05' E 123°27'615.3
2017-Nov-09 17:00N 31°05' E 123°19'815.1
2017-Nov-09 16:30N 31°05' E 123°10'814.9
2017-Nov-09 16:00N 31°05' E 123°02'815.3
2017-Nov-09 15:30N 31°05' E 122°53'1915.6
2017-Nov-09 14:16N 31°05' E 122°30'410.1
2017-Nov-09 13:52N 31°05' E 122°25'2 5.3
2017-Nov-09 13:25N 31°06' E 122°23'512.0
2017-Nov-09 12:59N 31°07' E 122°17'713.9
2017-Nov-09 12:30N 31°11' E 122°10'714.7
2017-Nov-09 12:00N 31°14' E 122°03'815.1
2017-Nov-09 11:30N 31°16' E 121°54'714.6
2017-Nov-09 11:00N 31°18' E 121°46'612.2
2017-Nov-09 10:30N 31°21' E 121°40'611.6
2017-Nov-09 10:00N 31°24' E 121°34'4 8.8
2017-Nov-09 09:30N 31°26' E 121°30'5 9.2
2017-Nov-09 09:00N 31°29' E 121°26'611.3
2017-Nov-09 08:30N 31°33' E 121°20'611.9
2017-Nov-09 08:00N 31°37' E 121°16'2 3.7
2017-Nov-09 07:25N 31°38' E 121°14'0 0.0
2017-Nov-09 06:55N 31°38' E 121°14'0 0.0
2017-Nov-09 06:25N 31°38' E 121°14'0 0.0
2017-Nov-09 05:58N 31°38' E 121°14'0 0.0
2017-Nov-09 05:28N 31°38' E 121°14'0 0.0
2017-Nov-09 04:58N 31°38' E 121°14'0 0.0
2017-Nov-09 04:28N 31°38' E 121°14'0 0.0
2017-Nov-09 03:58N 31°38' E 121°14'0 0.0
2017-Nov-09 03:28N 31°38' E 121°14'0 0.0
2017-Nov-09 02:58N 31°38' E 121°14'0 0.0
2017-Nov-09 02:28N 31°38' E 121°14'0 0.0
2017-Nov-09 01:58N 31°38' E 121°14'0 0.0
2017-Nov-09 01:25N 31°38' E 121°14'0 0.0
2017-Nov-09 00:58N 31°38' E 121°14'0 0.0
2017-Nov-09 00:28N 31°38' E 121°14'0 0.0
2017-Nov-08 23:55N 31°38' E 121°14'0 0.0
2017-Nov-08 23:28N 31°38' E 121°14'0 0.0
2017-Nov-08 22:58N 31°38' E 121°14'0 0.0
2017-Nov-08 22:28N 31°38' E 121°14'0 0.0
2017-Nov-08 21:55N 31°38' E 121°14'0 0.0
2017-Nov-08 21:28N 31°38' E 121°14'0 0.0
2017-Nov-08 20:58N 31°38' E 121°14'0 0.0
2017-Nov-08 20:28N 31°38' E 121°14'0 0.0
2017-Nov-08 19:58N 31°38' E 121°14'0 0.0
2017-Nov-08 19:25N 31°38' E 121°14'0 0.0
2017-Nov-08 18:55N 31°38' E 121°14'0 0.0
2017-Nov-08 18:28N 31°38' E 121°14'0 0.0
2017-Nov-08 17:58N 31°38' E 121°14'0 0.0
2017-Nov-08 17:28N 31°38' E 121°14'0 0.0
2017-Nov-08 16:55N 31°38' E 121°14'0 0.0
2017-Nov-08 16:28N 31°38' E 121°14'0 0.0
2017-Nov-08 15:58N 31°38' E 121°14'0 0.0
2017-Nov-08 15:28N 31°38' E 121°14'0 0.0
2017-Nov-08 14:55N 31°38' E 121°14'0 0.0
2017-Nov-08 14:28N 31°38' E 121°14'0 0.0
2017-Nov-08 13:58N 31°38' E 121°14'0 0.0
2017-Nov-08 13:28N 31°38' E 121°14'0 0.8
2017-Nov-08 13:00N 31°38' E 121°14'4 8.9
2017-Nov-08 12:30N 31°35' E 121°18'612.2
2017-Nov-08 12:00N 31°31' E 121°24'611.7
2017-Nov-08 11:30N 31°27' E 121°28'4 8.2
2017-Nov-08 11:00N 31°25' E 121°32'5 9.8
2017-Nov-08 10:30N 31°22' E 121°37'510.3
2017-Nov-08 10:00N 31°20' E 121°43'5 9.2
2017-Nov-08 09:30N 31°18' E 121°47'611.1
2017-Nov-08 09:00N 31°16' E 121°54'714.4
2017-Nov-08 08:30N 31°15' E 122°02'1010.1
2017-Nov-08 07:31N 31°10' E 122°12'113.9
2017-Nov-08 07:26N 31°09' E 122°13'5 9.7
2017-Nov-08 06:58N 31°07' E 122°18'5 9.7
2017-Nov-08 06:26N 31°06' E 122°24'4 7.8
2017-Nov-08 05:57N 31°07' E 122°28'4811.0
2017-Nov-08 01:34N 31°16' E 123°23'418.1
2017-Nov-08 01:22N 31°16' E 123°28'718.3
2017-Nov-08 01:00N 31°18' E 123°35'1618.5
2017-Nov-08 00:10N 31°26' E 123°51'  

Dump ship's entire track history